createdAt,value
2018-07-06T00:01:56.876Z,3.00
2018-07-06T00:04:36.489Z,2.93
2018-07-06T00:07:16.323Z,3.10
2018-07-06T00:09:56.038Z,2.77
2018-07-06T00:12:35.672Z,3.10
2018-07-06T00:15:15.317Z,3.10
2018-07-06T00:17:54.946Z,2.50
2018-07-06T00:20:34.680Z,2.87
2018-07-06T00:23:14.444Z,3.33
2018-07-06T00:25:54.126Z,2.93
2018-07-06T00:28:33.676Z,3.40
2018-07-06T00:31:13.221Z,3.07
2018-07-06T00:33:52.823Z,3.00
2018-07-06T00:36:32.581Z,2.90
2018-07-06T00:39:12.177Z,2.77
2018-07-06T00:41:52.420Z,3.37
2018-07-06T00:44:32.018Z,3.20
2018-07-06T00:47:11.926Z,2.80
2018-07-06T00:49:51.697Z,3.03
2018-07-06T00:52:31.374Z,3.00
2018-07-06T00:55:11.041Z,3.10
2018-07-06T00:57:52.715Z,3.17
2018-07-06T01:00:32.223Z,3.00
2018-07-06T01:03:12.201Z,3.17
2018-07-06T01:05:52.123Z,3.63
2018-07-06T01:08:32.368Z,3.50
2018-07-06T01:11:12.230Z,3.37
2018-07-06T01:13:51.837Z,3.50
2018-07-06T01:16:31.271Z,3.60
2018-07-06T01:19:10.991Z,3.50
2018-07-06T01:21:50.636Z,4.17
2018-07-06T01:24:30.528Z,4.07
2018-07-06T01:27:10.204Z,4.17
2018-07-06T01:29:49.897Z,3.90
2018-07-06T01:32:29.533Z,3.63
2018-07-06T01:35:09.230Z,4.13
2018-07-06T01:37:49.173Z,4.40
2018-07-06T01:40:29.092Z,4.37
2018-07-06T01:43:09.466Z,4.87
2018-07-06T01:45:49.462Z,4.33
2018-07-06T01:48:29.270Z,3.90
2018-07-06T01:51:09.134Z,4.37
2018-07-06T01:53:49.724Z,4.50
2018-07-06T01:56:29.459Z,4.77
2018-07-06T01:59:09.022Z,4.80
2018-07-06T02:01:49.317Z,4.50
2018-07-06T02:04:28.870Z,4.40
2018-07-06T02:07:08.964Z,4.67
2018-07-06T02:09:49.481Z,4.90
2018-07-06T02:12:29.391Z,5.17
2018-07-06T02:15:09.210Z,4.40
2018-07-06T02:17:49.561Z,4.77
2018-07-06T02:20:29.672Z,4.90
2018-07-06T02:23:09.372Z,4.83
2018-07-06T02:25:49.665Z,5.20
2018-07-06T02:28:29.341Z,5.03
2018-07-06T02:31:09.166Z,5.30
2018-07-06T02:33:49.125Z,4.90
2018-07-06T02:36:28.738Z,5.60
2018-07-06T02:39:08.571Z,5.23
2018-07-06T02:41:48.548Z,4.70
2018-07-06T02:44:28.376Z,5.47
2018-07-06T02:47:07.977Z,4.83
2018-07-06T02:49:47.767Z,5.30
2018-07-06T02:52:27.277Z,5.53
2018-07-06T02:55:07.414Z,5.50
2018-07-06T02:57:46.973Z,6.20
2018-07-06T03:00:27.043Z,6.03
2018-07-06T03:03:06.527Z,6.00
2018-07-06T03:05:46.432Z,5.70
2018-07-06T03:08:25.949Z,5.70
2018-07-06T03:11:05.640Z,6.37
2018-07-06T03:13:45.363Z,6.00
2018-07-06T03:16:25.324Z,6.17
2018-07-06T03:19:04.720Z,6.23
2018-07-06T03:21:44.274Z,6.17
2018-07-06T03:24:24.092Z,7.75
2018-07-06T03:27:03.929Z,5.90
2018-07-06T03:29:43.378Z,6.47
2018-07-06T03:32:23.083Z,6.60
2018-07-06T03:35:03.149Z,6.90
2018-07-06T03:37:42.697Z,6.97
2018-07-06T03:40:22.528Z,6.60
2018-07-06T03:43:01.963Z,6.73
2018-07-06T03:45:41.777Z,6.73
2018-07-06T03:48:21.587Z,7.00
2018-07-06T03:51:01.302Z,7.10
2018-07-06T03:53:41.068Z,6.80
2018-07-06T03:56:20.721Z,7.40
2018-07-06T03:59:00.584Z,7.40
2018-07-06T04:01:40.254Z,7.17
2018-07-06T04:04:19.946Z,7.07
2018-07-06T04:06:59.718Z,6.83
2018-07-06T04:09:39.509Z,7.80
2018-07-06T04:12:19.724Z,8.27
2018-07-06T04:14:59.411Z,7.17
2018-07-06T04:17:39.172Z,8.33
2018-07-06T04:20:18.968Z,7.70
2018-07-06T04:22:58.585Z,7.87
2018-07-06T04:25:38.425Z,7.90
2018-07-06T04:28:18.157Z,7.33
2018-07-06T04:30:58.077Z,7.83
2018-07-06T04:33:38.158Z,7.80
2018-07-06T04:36:18.506Z,7.73
2018-07-06T04:38:58.331Z,8.30
2018-07-06T04:41:38.107Z,8.77
2018-07-06T04:44:18.635Z,7.80
2018-07-06T04:46:58.407Z,8.33
2018-07-06T04:49:38.107Z,8.67
2018-07-06T04:52:18.106Z,8.27
2018-07-06T04:54:57.579Z,8.80
2018-07-06T04:57:37.440Z,8.73
2018-07-06T05:00:17.068Z,8.50
2018-07-06T05:02:56.741Z,8.90
2018-07-06T05:05:36.333Z,9.23
2018-07-06T05:08:16.282Z,9.50
2018-07-06T05:10:55.862Z,8.97
2018-07-06T05:13:35.260Z,9.10
2018-07-06T05:16:15.057Z,9.97
2018-07-06T05:18:54.865Z,9.60
2018-07-06T05:21:34.518Z,9.23
2018-07-06T05:24:14.865Z,9.27
2018-07-06T05:26:54.606Z,9.07
2018-07-06T05:29:34.926Z,9.03
2018-07-06T05:32:14.721Z,9.67
2018-07-06T05:34:54.293Z,9.50
2018-07-06T05:37:34.045Z,10.87
2018-07-06T05:40:13.688Z,9.87
2018-07-06T05:42:53.458Z,9.57
2018-07-06T05:45:33.031Z,8.87
2018-07-06T05:48:12.799Z,9.20
2018-07-06T05:50:52.494Z,9.70
2018-07-06T05:53:32.430Z,8.97
2018-07-06T05:56:12.961Z,9.60
2018-07-06T05:58:52.559Z,8.90
2018-07-06T06:01:32.203Z,9.23
2018-07-06T06:04:11.904Z,8.50
2018-07-06T06:06:51.554Z,9.40
2018-07-06T06:09:21.014Z,9.70
2018-07-06T06:11:50.352Z,9.40
2018-07-06T06:14:19.946Z,9.40
2018-07-06T06:16:48.821Z,10.30
2018-07-06T06:19:17.846Z,9.70
2018-07-06T06:21:46.359Z,10.30
2018-07-06T06:24:14.871Z,9.80
2018-07-06T06:26:43.455Z,10.20
2018-07-06T06:29:12.165Z,9.70
2018-07-06T06:31:41.252Z,9.90
2018-07-06T06:34:10.074Z,9.87
2018-07-06T06:36:38.998Z,9.57
2018-07-06T06:39:07.683Z,8.33
2018-07-06T06:41:36.233Z,8.53
2018-07-06T06:44:05.000Z,8.97
2018-07-06T06:46:33.758Z,9.60
2018-07-06T06:49:02.401Z,17.20
2018-07-06T06:51:31.077Z,15.33
2018-07-06T06:53:59.737Z,16.53
2018-07-06T06:56:32.367Z,16.23
2018-07-06T06:59:01.230Z,12.53
2018-07-06T07:01:29.836Z,13.87
2018-07-06T07:03:59.006Z,14.47
2018-07-06T07:06:27.857Z,13.57
2018-07-06T07:08:56.521Z,17.00
2018-07-06T07:11:25.618Z,16.43
2018-07-06T07:13:54.628Z,17.43
2018-07-06T07:16:23.353Z,18.47
2018-07-06T07:18:52.482Z,21.33
2018-07-06T07:21:21.287Z,24.30
2018-07-06T07:23:50.946Z,29.13
2018-07-06T07:26:20.126Z,29.50
2018-07-06T07:28:48.795Z,30.20
2018-07-06T07:31:17.809Z,31.60
2018-07-06T07:33:47.258Z,31.77
2018-07-06T07:36:16.023Z,29.87
2018-07-06T07:38:44.782Z,32.60
2018-07-06T07:41:13.392Z,34.63
2018-07-06T07:43:42.781Z,34.13
2018-07-06T07:46:11.373Z,34.67
2018-07-06T07:48:40.945Z,34.73
2018-07-06T07:51:57.864Z,33.80
2018-07-06T07:54:28.521Z,33.33
2018-07-06T07:56:58.478Z,30.23
2018-07-06T07:59:28.681Z,28.93
2018-07-06T08:02:19.122Z,28.27
2018-07-06T08:04:48.837Z,26.33
2018-07-06T08:07:17.822Z,24.97
2018-07-06T08:09:46.477Z,22.67
2018-07-06T08:12:15.228Z,21.47
2018-07-06T08:14:44.009Z,22.97
2018-07-06T08:17:12.839Z,23.70
2018-07-06T08:19:41.999Z,24.20
2018-07-06T08:22:10.729Z,23.70
2018-07-06T08:24:57.929Z,22.17
2018-07-06T08:27:26.493Z,20.13
2018-07-06T08:29:54.944Z,21.27
2018-07-06T08:32:23.404Z,22.30
2018-07-06T08:35:03.006Z,20.80
2018-07-06T08:37:45.798Z,21.27
2018-07-06T08:40:14.446Z,21.73
2018-07-06T08:42:44.227Z,22.80
2018-07-06T08:45:13.064Z,24.83
2018-07-06T08:47:41.835Z,24.53
2018-07-06T08:50:10.691Z,23.17
2018-07-06T08:52:40.045Z,23.77
2018-07-06T08:55:08.542Z,24.77
2018-07-06T08:57:37.818Z,25.50
2018-07-06T09:00:07.856Z,26.23
2018-07-06T09:02:37.743Z,24.83
2018-07-06T09:05:06.682Z,26.80
2018-07-06T09:07:35.185Z,23.77
2018-07-06T09:10:03.965Z,24.50
2018-07-06T09:12:32.391Z,24.50
2018-07-06T09:15:01.916Z,23.97
2018-07-06T09:17:30.395Z,21.43
2018-07-06T09:19:59.836Z,19.33
2018-07-06T09:22:28.238Z,20.23
2018-07-06T09:25:00.041Z,22.50
2018-07-06T09:27:28.477Z,24.47
2018-07-06T09:29:57.053Z,20.97
2018-07-06T09:32:25.433Z,23.40
2018-07-06T09:34:53.918Z,24.67
2018-07-06T09:37:22.341Z,23.07
2018-07-06T09:40:04.842Z,25.53
2018-07-06T09:42:33.498Z,24.67
2018-07-06T09:45:01.857Z,24.33
2018-07-06T09:47:30.317Z,21.40
2018-07-06T09:49:58.833Z,22.77
2018-07-06T09:52:27.495Z,22.80
2018-07-06T09:54:56.019Z,22.90
2018-07-06T09:57:24.562Z,22.60
2018-07-06T09:59:53.435Z,22.50
2018-07-06T10:02:22.009Z,21.90
2018-07-06T10:04:50.587Z,21.23
2018-07-06T10:07:19.047Z,21.93
2018-07-06T10:09:48.234Z,21.07
2018-07-06T10:12:16.806Z,20.33
2018-07-06T10:14:45.286Z,19.03
2018-07-06T10:17:13.764Z,20.87
2018-07-06T10:19:42.254Z,18.00
2018-07-06T10:22:10.701Z,17.73
2018-07-06T10:30:38.539Z,17.30
2018-07-06T10:33:08.842Z,18.10
2018-07-06T10:35:37.281Z,18.03
2018-07-06T10:38:05.923Z,16.80
2018-07-06T10:40:34.402Z,14.70
2018-07-06T10:43:02.840Z,15.17
2018-07-06T10:45:31.401Z,15.63
2018-07-06T10:47:59.870Z,15.60
2018-07-06T10:50:28.375Z,16.53
2018-07-06T10:52:56.850Z,15.87
2018-07-06T10:55:25.413Z,14.73
2018-07-06T10:57:54.071Z,16.37
2018-07-06T11:00:23.682Z,13.97
2018-07-06T11:02:52.149Z,14.53
2018-07-06T11:05:20.739Z,14.37
2018-07-06T11:07:49.287Z,14.20
2018-07-06T11:10:17.768Z,14.00
2018-07-06T11:12:46.209Z,13.53
2018-07-06T11:15:14.654Z,13.60
2018-07-06T11:17:43.119Z,13.83
2018-07-06T11:20:11.585Z,14.07
2018-07-06T11:22:40.023Z,12.83
2018-07-06T11:25:08.544Z,13.90
2018-07-06T11:27:37.045Z,15.23
2018-07-06T11:30:05.644Z,15.33
2018-07-06T11:32:34.082Z,14.97
2018-07-06T11:35:02.564Z,14.37
2018-07-06T11:37:31.073Z,13.70
2018-07-06T11:39:59.533Z,13.53
2018-07-06T11:42:27.966Z,12.27
2018-07-06T11:44:56.542Z,13.20
2018-07-06T11:47:24.961Z,14.03
2018-07-06T11:49:53.454Z,13.93
2018-07-06T11:52:21.959Z,14.40
2018-07-06T11:54:50.384Z,14.67
2018-07-06T11:57:18.846Z,12.73
2018-07-06T11:59:47.281Z,13.50
2018-07-06T12:02:15.833Z,11.50
2018-07-06T12:04:44.307Z,12.47
2018-07-06T12:07:12.767Z,10.97
2018-07-06T12:09:41.229Z,11.63
2018-07-06T12:12:09.724Z,11.37
2018-07-06T12:14:38.269Z,11.50
2018-07-06T12:17:07.860Z,11.33
2018-07-06T12:19:36.311Z,9.67
2018-07-06T12:22:05.258Z,10.53
2018-07-06T12:24:33.679Z,11.07
2018-07-06T12:27:02.165Z,10.27
2018-07-06T12:29:30.646Z,9.30
2018-07-06T12:31:59.102Z,9.13
2018-07-06T12:34:27.533Z,9.77
2018-07-06T12:36:56.239Z,8.67
2018-07-06T12:39:24.722Z,8.53
2018-07-06T12:41:53.170Z,9.60
2018-07-06T12:44:21.629Z,9.10
2018-07-06T12:46:50.106Z,10.03
2018-07-06T12:49:18.549Z,10.93
2018-07-06T12:51:50.705Z,9.70
2018-07-06T12:54:19.109Z,8.00
2018-07-06T12:56:48.274Z,8.50
2018-07-06T12:59:16.794Z,7.80
2018-07-06T13:01:45.345Z,8.63
2018-07-06T13:04:14.021Z,8.70
2018-07-06T13:06:42.489Z,8.20
2018-07-06T13:09:10.954Z,8.27
2018-07-06T13:11:39.850Z,8.03
2018-07-06T13:14:08.369Z,7.80
2018-07-06T13:16:36.900Z,8.57
2018-07-06T13:19:05.407Z,7.28
2018-07-06T13:21:33.941Z,7.33
2018-07-06T13:24:02.338Z,8.15
2018-07-06T13:26:30.838Z,8.83
2018-07-06T13:28:59.249Z,7.40
2018-07-06T13:31:27.674Z,7.55
2018-07-06T13:33:56.174Z,6.78
2018-07-06T13:36:24.488Z,7.08
2018-07-06T13:38:52.881Z,6.92
2018-07-06T13:41:21.351Z,6.67
2018-07-06T13:43:49.767Z,7.58
2018-07-06T13:46:18.184Z,7.45
2018-07-06T13:48:46.700Z,7.12
2018-07-06T13:51:15.206Z,6.55
2018-07-06T13:53:43.745Z,7.30
2018-07-06T13:56:12.297Z,6.80
2018-07-06T13:58:40.826Z,6.70
2018-07-06T14:01:09.283Z,8.50
2018-07-06T14:03:37.879Z,7.10
2018-07-06T14:06:06.437Z,6.67
2018-07-06T14:08:35.081Z,6.22
2018-07-06T14:11:03.539Z,6.45
2018-07-06T14:13:32.067Z,7.30
2018-07-06T14:16:00.506Z,7.50
2018-07-06T14:18:29.077Z,7.30
2018-07-06T14:20:57.523Z,7.37
2018-07-06T14:23:26.050Z,7.30
2018-07-06T14:25:54.534Z,6.67
2018-07-06T14:28:23.071Z,7.55
2018-07-06T14:30:51.469Z,7.50
2018-07-06T14:33:20.078Z,6.97
2018-07-06T14:35:48.576Z,6.50
2018-07-06T14:38:17.102Z,6.65
2018-07-06T14:40:45.581Z,6.67
2018-07-06T14:43:14.666Z,6.45
2018-07-06T14:45:43.089Z,6.90
2018-07-06T14:48:11.551Z,6.27
2018-07-06T14:50:40.014Z,6.93
2018-07-06T14:53:08.467Z,6.30
2018-07-06T14:55:36.858Z,6.80
2018-07-06T14:58:05.873Z,6.63
2018-07-06T15:00:34.287Z,6.77
2018-07-06T15:03:02.741Z,6.73
2018-07-06T15:05:31.154Z,7.07
2018-07-06T15:07:59.574Z,5.93
2018-07-06T15:10:28.015Z,5.72
2018-07-06T15:12:56.461Z,6.30
2018-07-06T15:15:25.218Z,6.83
2018-07-06T15:17:53.685Z,6.95
2018-07-06T15:20:22.273Z,5.62
2018-07-06T15:22:51.486Z,6.40
2018-07-06T15:25:19.870Z,7.05
2018-07-06T15:27:48.461Z,7.00
2018-07-06T15:30:16.969Z,6.15
2018-07-06T15:32:45.443Z,6.35
2018-07-06T15:35:13.838Z,5.42
2018-07-06T15:37:42.297Z,5.80
2018-07-06T15:40:10.702Z,5.97
2018-07-06T15:42:39.099Z,5.72
2018-07-06T15:45:07.613Z,6.17
2018-07-06T15:47:36.056Z,6.00
2018-07-06T15:50:04.601Z,5.90
2018-07-06T15:52:33.086Z,5.50
2018-07-06T15:55:01.506Z,6.23
2018-07-06T15:57:30.049Z,6.03
2018-07-06T15:59:58.475Z,5.50
2018-07-06T16:02:27.002Z,5.70
2018-07-06T16:04:55.435Z,5.30
2018-07-06T16:07:23.954Z,4.90
2018-07-06T16:09:52.433Z,5.30
2018-07-06T16:12:20.902Z,6.30
2018-07-06T16:14:49.398Z,5.37
2018-07-06T16:17:25.606Z,5.87
2018-07-06T16:19:54.282Z,5.73
2018-07-06T16:22:22.839Z,6.03
2018-07-06T16:24:51.485Z,5.83
2018-07-06T16:27:19.877Z,5.27
2018-07-06T16:29:48.357Z,5.67
2018-07-06T16:32:19.844Z,5.90
2018-07-06T16:34:49.246Z,5.33
2018-07-06T16:37:17.682Z,6.10
2018-07-06T16:39:46.333Z,6.47
2018-07-06T16:42:14.804Z,5.73
2018-07-06T16:44:43.281Z,5.70
2018-07-06T16:47:16.734Z,5.23
2018-07-06T16:49:45.343Z,5.10
2018-07-06T16:52:14.056Z,5.33
2018-07-06T16:54:42.965Z,5.60
2018-07-06T16:57:11.929Z,5.20
2018-07-06T16:59:42.442Z,5.50
2018-07-06T17:02:11.049Z,5.03
2018-07-06T17:04:39.517Z,5.67
2018-07-06T17:07:08.615Z,5.63
2018-07-06T17:09:37.361Z,5.50
2018-07-06T17:12:05.941Z,5.50
2018-07-06T17:14:34.536Z,5.10
2018-07-06T17:17:03.424Z,5.10
2018-07-06T17:19:31.896Z,5.00
2018-07-06T17:22:00.689Z,4.60
2018-07-06T17:24:29.181Z,5.00
2018-07-06T17:26:59.654Z,5.40
2018-07-06T17:29:28.290Z,4.77
2018-07-06T17:31:56.931Z,5.10
2018-07-06T17:34:25.599Z,5.07
2018-07-06T17:36:54.962Z,4.40
2018-07-06T17:39:23.496Z,5.33
2018-07-06T17:41:51.984Z,4.50
2018-07-06T17:44:20.537Z,5.23
2018-07-06T17:46:49.005Z,5.30
2018-07-06T17:49:17.615Z,4.80
2018-07-06T17:51:46.049Z,4.60
2018-07-06T17:54:14.586Z,4.87
2018-07-06T17:56:43.837Z,4.57
2018-07-06T17:59:15.520Z,4.53
2018-07-06T18:01:44.024Z,4.17
2018-07-06T18:04:12.647Z,4.47
2018-07-06T18:06:49.259Z,4.50
2018-07-06T18:09:18.662Z,4.73
2018-07-06T18:11:47.466Z,4.20
2018-07-06T18:14:16.202Z,4.33
2018-07-06T18:16:45.138Z,4.07
2018-07-06T18:19:13.646Z,4.00
2018-07-06T18:21:45.898Z,4.20
2018-07-06T18:24:14.749Z,3.80
2018-07-06T18:26:43.178Z,4.07
2018-07-06T18:29:11.826Z,3.67
2018-07-06T18:31:40.936Z,4.33
2018-07-06T18:34:09.639Z,3.80
2018-07-06T18:36:38.142Z,3.90
2018-07-06T18:39:08.347Z,4.77
2018-07-06T18:41:36.798Z,4.50
2018-07-06T18:44:05.329Z,4.07
2018-07-06T18:46:33.789Z,4.30
2018-07-06T18:49:02.634Z,4.00
2018-07-06T18:51:31.214Z,3.63
2018-07-06T18:54:00.591Z,3.60
2018-07-06T18:56:29.249Z,3.63
2018-07-06T18:58:58.605Z,4.10
2018-07-06T19:01:27.090Z,3.93
2018-07-06T19:03:57.005Z,4.00
2018-07-06T19:06:25.874Z,4.00
2018-07-06T19:09:12.905Z,4.00
2018-07-06T19:11:41.358Z,4.00
2018-07-06T19:14:09.889Z,3.70
2018-07-06T19:16:38.405Z,3.90
2018-07-06T19:19:06.918Z,3.77
2018-07-06T19:21:35.430Z,3.60
2018-07-06T19:24:03.978Z,3.83
2018-07-06T19:26:33.550Z,3.80
2018-07-06T19:29:02.074Z,3.60
2018-07-06T19:31:30.638Z,3.73
2018-07-06T19:33:59.228Z,3.90
2018-07-06T19:36:28.319Z,4.00
2018-07-06T19:38:56.833Z,3.90
2018-07-06T19:41:25.290Z,4.20
2018-07-06T19:43:53.810Z,3.63
2018-07-06T19:46:22.839Z,4.07
2018-07-06T19:48:51.381Z,4.00
2018-07-06T19:51:19.893Z,3.77
2018-07-06T19:53:48.343Z,3.80
2018-07-06T19:56:16.820Z,3.90
2018-07-06T19:58:45.331Z,4.03
2018-07-06T20:01:14.076Z,4.17
2018-07-06T20:03:42.605Z,4.20
2018-07-06T20:06:11.110Z,4.27
2018-07-06T20:08:39.910Z,4.13
2018-07-06T20:11:08.418Z,4.13
2018-07-06T20:13:37.214Z,4.60
2018-07-06T20:16:05.781Z,5.60
2018-07-06T20:18:34.245Z,4.60
2018-07-06T20:21:02.765Z,4.60
2018-07-06T20:23:31.260Z,4.80
2018-07-06T20:25:59.750Z,3.90
2018-07-06T20:28:28.262Z,4.50
2018-07-06T20:30:56.739Z,4.50
2018-07-06T20:33:25.201Z,4.30
2018-07-06T20:35:53.657Z,4.40
2018-07-06T20:38:22.097Z,4.60
2018-07-06T20:40:50.619Z,4.37
2018-07-06T20:43:19.059Z,3.93
2018-07-06T20:45:47.565Z,4.40
2018-07-06T20:48:16.037Z,4.63
2018-07-06T20:50:44.502Z,4.73
2018-07-06T20:53:13.010Z,4.50
2018-07-06T20:55:41.586Z,5.27
2018-07-06T20:58:10.084Z,5.37
2018-07-06T21:00:38.582Z,6.00
2018-07-06T21:03:07.020Z,5.57
2018-07-06T21:05:36.521Z,6.03
2018-07-06T21:08:05.016Z,6.07
2018-07-06T21:10:33.542Z,5.70
2018-07-06T21:13:01.953Z,5.40
2018-07-06T21:15:30.390Z,6.17
2018-07-06T21:17:58.818Z,5.30
2018-07-06T21:20:27.296Z,5.60
2018-07-06T21:22:55.709Z,5.37
2018-07-06T21:25:24.081Z,4.77
2018-07-06T21:27:52.527Z,5.67
2018-07-06T21:30:20.942Z,5.73
2018-07-06T21:32:49.505Z,5.70
2018-07-06T21:35:17.910Z,5.47
2018-07-06T21:37:46.382Z,5.70
2018-07-06T21:40:14.884Z,5.43
2018-07-06T21:42:43.372Z,5.33
2018-07-06T21:45:11.877Z,5.40
2018-07-06T21:47:40.366Z,5.77
2018-07-06T21:50:08.892Z,6.07
2018-07-06T21:52:37.318Z,5.60
2018-07-06T21:55:05.737Z,5.67
2018-07-06T21:57:34.460Z,5.80
2018-07-06T22:00:02.955Z,6.70
2018-07-06T22:02:31.853Z,5.93
2018-07-06T22:05:00.358Z,5.80
2018-07-06T22:07:28.802Z,6.30
2018-07-06T22:09:57.254Z,6.40
2018-07-06T22:12:25.685Z,6.57
2018-07-06T22:14:53.087Z,6.90
2018-07-06T22:17:21.541Z,6.67
2018-07-06T22:19:49.975Z,6.77
2018-07-06T22:22:18.411Z,7.03
2018-07-06T22:24:46.783Z,7.03
2018-07-06T22:27:15.247Z,7.53
2018-07-06T22:29:43.672Z,7.80
2018-07-06T22:32:12.114Z,8.43
2018-07-06T22:34:40.576Z,8.27
2018-07-06T22:37:09.017Z,8.10
2018-07-06T22:39:37.511Z,8.57
2018-07-06T22:42:06.109Z,7.70
2018-07-06T22:44:34.549Z,8.03
2018-07-06T22:47:03.011Z,8.20
2018-07-06T22:49:31.434Z,7.70
2018-07-06T22:51:59.941Z,8.10
2018-07-06T22:54:28.345Z,6.80
2018-07-06T22:56:56.769Z,7.53
2018-07-06T22:59:25.182Z,8.00
2018-07-06T23:01:53.590Z,8.13
2018-07-06T23:04:22.049Z,8.33
2018-07-06T23:06:50.461Z,8.53
2018-07-06T23:09:18.953Z,7.50
2018-07-06T23:11:47.413Z,7.23
2018-07-06T23:14:15.821Z,7.10
2018-07-06T23:16:44.277Z,7.03
2018-07-06T23:19:12.750Z,7.17
2018-07-06T23:21:41.230Z,7.00
2018-07-06T23:24:09.735Z,7.07
2018-07-06T23:26:38.194Z,7.80
2018-07-06T23:29:06.687Z,8.70
2018-07-06T23:31:35.123Z,9.63
2018-07-06T23:34:03.537Z,9.50
2018-07-06T23:36:31.943Z,8.43
2018-07-06T23:39:00.389Z,8.83
2018-07-06T23:41:28.868Z,7.87
2018-07-06T23:43:57.404Z,7.83
2018-07-06T23:46:25.841Z,8.37
2018-07-06T23:48:54.339Z,8.30
2018-07-06T23:51:22.852Z,8.30
2018-07-06T23:53:51.334Z,8.60
2018-07-06T23:56:19.744Z,7.50
2018-07-06T23:58:48.172Z,7.23
